Time;durP1;ratioP1;P1;durP2;ratioP2;P2;SDS_P1;SDS_P2;PMS_P1;PMS_P2;Temp;Humidity;BMP_temperature;BMP_pressure;BME280_temperature;BME280_humidity;BME280_pressure;Samples;Min_cycle;Max_cycle;Signal;HPM_P1;HPM_P2
2022/06/05 00:00:41;;;;;;;27.10;13.65;;;;;;;17.48;100.00;98207.03;5052285;28;20852;-58
2022/06/05 00:03:30;;;;;;;32.03;14.60;;;;;;;17.54;100.00;98204.81;5048129;28;20042;-59
2022/06/05 00:06:11;;;;;;;30.90;13.90;;;;;;;17.37;100.00;98215.63;5045995;28;20122;-58
2022/06/05 00:09:06;;;;;;;27.45;13.60;;;;;;;17.47;100.00;98211.44;5046665;28;20028;-57
2022/06/05 00:11:47;;;;;;;26.38;13.00;;;;;;;17.67;100.00;98211.91;5046319;28;20086;-57
2022/06/05 00:14:14;;;;;;;35.10;14.05;;;;;;;17.31;100.00;98216.00;5046877;28;20032;-58
2022/06/05 00:16:39;;;;;;;30.45;13.57;;;;;;;17.21;100.00;98221.03;5043306;28;20044;-58
2022/06/05 00:19:05;;;;;;;33.42;14.75;;;;;;;17.22;100.00;98212.22;5045942;28;20021;-58
2022/06/05 00:21:30;;;;;;;28.33;14.68;;;;;;;17.20;100.00;98218.50;5048397;28;20592;-59
2022/06/05 00:23:56;;;;;;;26.92;13.85;;;;;;;17.07;100.00;98214.00;5046555;28;20894;-58
2022/06/05 00:26:29;;;;;;;26.45;14.68;;;;;;;17.07;100.00;98203.47;5054024;28;20203;-58
2022/06/05 00:29:31;;;;;;;24.98;14.15;;;;;;;17.15;100.00;98209.13;5045062;28;20016;-60
2022/06/05 00:32:28;;;;;;;19.95;12.90;;;;;;;17.35;100.00;98201.72;5044028;28;20151;-59
2022/06/05 00:34:53;;;;;;;21.33;12.68;;;;;;;17.13;100.00;98208.38;5047812;28;20112;-59
2022/06/05 00:37:52;;;;;;;23.35;13.65;;;;;;;17.04;100.00;98208.97;5046968;28;20032;-58
2022/06/05 00:40:28;;;;;;;27.15;14.27;;;;;;;17.20;100.00;98195.63;5033906;28;20041;-58
2022/06/05 00:42:54;;;;;;;23.58;14.40;;;;;;;17.28;100.00;98189.88;5048575;28;20033;-58
2022/06/05 00:45:20;;;;;;;27.77;14.43;;;;;;;17.26;100.00;98195.25;5050595;28;20160;-58
2022/06/05 00:47:46;;;;;;;22.27;12.73;;;;;;;17.14;100.00;98199.50;5047242;28;20025;-58
2022/06/05 00:50:24;;;;;;;21.75;12.75;;;;;;;17.24;100.00;98185.72;5047756;28;20028;-58
2022/06/05 00:52:56;;;;;;;20.38;12.52;;;;;;;17.34;100.00;98192.94;5052094;28;20035;-58
2022/06/05 00:55:24;;;;;;;20.75;12.10;;;;;;;17.15;100.00;98185.41;5049305;28;20051;-58
2022/06/05 00:57:50;;;;;;;20.38;12.65;;;;;;;17.18;100.00;98183.50;5050789;28;20529;-57
2022/06/05 01:00:25;;;;;;;21.58;12.82;;;;;;;17.03;100.00;98183.53;5044505;28;20035;-59
2022/06/05 01:02:55;;;;;;;18.70;13.07;;;;;;;16.95;100.00;98183.19;5049609;28;20032;-58
2022/06/05 01:05:22;;;;;;;23.88;12.80;;;;;;;17.08;100.00;98176.19;5048130;28;20037;-57
2022/06/05 01:07:48;;;;;;;22.20;13.50;;;;;;;16.91;100.00;98176.44;5047225;28;20498;-57
2022/06/05 01:10:16;;;;;;;20.35;12.65;;;;;;;16.96;100.00;98176.97;5047668;28;20036;-58
2022/06/05 01:12:59;;;;;;;21.67;12.48;;;;;;;17.09;100.00;98183.16;5049696;28;20034;-58
2022/06/05 01:15:44;;;;;;;20.23;12.55;;;;;;;17.04;100.00;98177.34;5048290;28;20037;-58
2022/06/05 01:18:24;;;;;;;20.83;12.65;;;;;;;16.81;100.00;98170.88;5048404;28;20112;-58
2022/06/05 01:21:12;;;;;;;19.45;12.05;;;;;;;16.93;100.00;98164.84;5047696;28;20064;-57
2022/06/05 01:24:07;;;;;;;25.60;12.50;;;;;;;16.70;100.00;98168.91;5027877;28;20044;-58
2022/06/05 01:27:01;;;;;;;21.45;12.07;;;;;;;17.02;100.00;98168.69;5050214;28;20037;-57
2022/06/05 01:29:45;;;;;;;22.45;12.65;;;;;;;16.94;100.00;98144.59;5046515;28;20028;-57
2022/06/05 01:32:23;;;;;;;21.48;12.20;;;;;;;16.82;100.00;98150.63;5046840;28;20516;-60
2022/06/05 01:34:57;;;;;;;20.60;12.32;;;;;;;17.06;100.00;98148.25;5045993;28;20103;-59
2022/06/05 01:37:25;;;;;;;22.67;12.82;;;;;;;17.03;100.00;98149.28;5046219;28;20091;-58
2022/06/05 01:40:02;;;;;;;26.52;12.50;;;;;;;16.91;100.00;98150.09;5046077;28;20056;-57
2022/06/05 01:42:32;;;;;;;22.27;12.15;;;;;;;16.76;100.00;98158.00;5045691;28;20422;-58
2022/06/05 01:45:05;;;;;;;22.85;12.05;;;;;;;16.76;100.00;98155.38;5048982;28;20024;-57
2022/06/05 01:47:37;;;;;;;25.15;12.48;;;;;;;16.82;100.00;98155.91;5047761;28;20051;-57
2022/06/05 01:50:21;;;;;;;25.05;12.25;;;;;;;16.87;100.00;98156.50;5047674;28;20052;-59
2022/06/05 01:53:22;;;;;;;22.55;12.27;;;;;;;16.76;100.00;98163.28;5047335;28;20075;-58
2022/06/05 01:56:25;;;;;;;18.60;11.13;;;;;;;16.66;100.00;98162.16;5046892;28;20060;-57
2022/06/05 01:58:59;;;;;;;21.50;11.68;;;;;;;16.58;100.00;98148.63;5013333;28;20186;-59
2022/06/05 02:01:30;;;;;;;21.48;12.15;;;;;;;16.61;100.00;98137.88;5046391;28;20509;-59
2022/06/05 02:04:04;;;;;;;18.15;11.25;;;;;;;16.75;100.00;98137.88;5050067;28;20583;-59
2022/06/05 02:06:34;;;;;;;19.27;11.75;;;;;;;16.84;100.00;98138.25;5052170;28;20048;-60
2022/06/05 02:09:08;;;;;;;22.15;11.38;;;;;;;16.78;100.00;98134.22;5050297;28;20055;-58
2022/06/05 02:11:34;;;;;;;24.77;11.48;;;;;;;16.68;100.00;98131.28;5051322;28;20037;-59
2022/06/05 02:14:07;;;;;;;21.20;11.35;;;;;;;16.67;100.00;98132.25;5053347;28;20024;-59
2022/06/05 02:16:36;;;;;;;22.45;11.85;;;;;;;16.70;100.00;98131.19;5053630;28;20666;-58
2022/06/05 02:19:05;;;;;;;24.05;12.32;;;;;;;16.51;100.00;98134.16;5050326;28;20028;-59
2022/06/05 02:21:37;;;;;;;19.73;11.35;;;;;;;16.60;100.00;98136.22;5050407;28;20043;-58
2022/06/05 02:24:03;;;;;;;22.60;12.18;;;;;;;16.72;100.00;98130.16;5052291;28;20048;-59
2022/06/05 02:26:29;;;;;;;19.20;11.25;;;;;;;16.53;100.00;98119.13;5050825;28;20124;-58
2022/06/05 02:28:56;;;;;;;19.17;11.95;;;;;;;16.52;100.00;98113.00;5052552;28;20413;-58
2022/06/05 02:31:28;;;;;;;21.90;11.63;;;;;;;16.60;100.00;98109.00;5052127;28;20037;-58
2022/06/05 02:34:05;;;;;;;20.87;11.97;;;;;;;16.61;100.00;98111.56;5052781;28;20052;-58
2022/06/05 02:37:03;;;;;;;20.58;11.85;;;;;;;16.70;100.00;98105.69;5051347;28;20048;-58
2022/06/05 02:39:47;;;;;;;22.23;12.15;;;;;;;16.50;100.00;98087.69;5049435;28;20044;-58
2022/06/05 02:42:21;;;;;;;18.38;11.32;;;;;;;16.58;100.00;98077.53;5049645;28;20037;-58
2022/06/05 02:44:47;;;;;;;20.08;10.70;;;;;;;16.72;100.00;98066.09;5059575;28;20658;-62
2022/06/05 02:47:39;;;;;;;21.20;11.57;;;;;;;16.80;100.00;98062.97;5051419;28;20090;-59
2022/06/05 02:50:30;;;;;;;24.75;11.60;;;;;;;16.60;100.00;98078.28;5051018;28;20546;-59
2022/06/05 02:53:04;;;;;;;19.70;10.77;;;;;;;16.68;100.00;98060.19;5051161;28;20055;-59
2022/06/05 02:55:29;;;;;;;22.15;11.57;;;;;;;16.64;100.00;98061.34;5051126;28;20110;-58
2022/06/05 02:57:55;;;;;;;20.05;11.43;;;;;;;16.53;100.00;98059.38;5053615;28;20037;-58
2022/06/05 03:00:24;;;;;;;18.50;12.07;;;;;;;16.59;100.00;98058.16;5049463;28;20068;-59
2022/06/05 03:05:34;;;;;;;18.20;10.63;;;;;;;17.20;100.00;98055.09;5050691;28;20333;-58
2022/06/05 03:07:59;;;;;;;19.80;11.88;;;;;;;17.09;100.00;98053.16;5051547;28;20040;-57
2022/06/05 03:10:25;;;;;;;18.15;10.93;;;;;;;17.25;100.00;98047.72;5048675;28;20021;-58
2022/06/05 03:12:50;;;;;;;19.38;11.70;;;;;;;16.85;100.00;98050.38;5051304;28;20028;-59
2022/06/05 03:15:16;;;;;;;22.77;12.45;;;;;;;16.80;100.00;98047.16;5050040;28;20605;-58
2022/06/05 03:17:43;;;;;;;20.02;12.07;;;;;;;17.00;100.00;98035.34;5050633;28;20051;-58
2022/06/05 03:20:09;;;;;;;23.80;12.82;;;;;;;16.92;100.00;98027.94;5049931;28;20024;-59
2022/06/05 03:22:35;;;;;;;21.90;12.63;;;;;;;16.76;100.00;98030.72;5051067;28;20029;-58
2022/06/05 03:25:01;;;;;;;24.27;13.43;;;;;;;16.96;100.00;98029.41;5051520;28;20062;-59
2022/06/05 03:27:27;;;;;;;22.13;13.27;;;;;;;17.01;100.00;98034.41;5049829;28;20127;-58
2022/06/05 03:29:53;;;;;;;25.48;12.82;;;;;;;17.07;100.00;98039.25;5050914;28;20024;-59
2022/06/05 03:32:18;;;;;;;21.67;12.15;;;;;;;16.98;100.00;98024.91;5050051;28;20051;-58
2022/06/05 03:34:43;;;;;;;23.48;12.70;;;;;;;16.91;100.00;98018.38;5050244;28;20024;-58
2022/06/05 03:37:09;;;;;;;22.73;12.80;;;;;;;17.11;100.00;98022.28;5050422;28;20051;-58
2022/06/05 03:39:35;;;;;;;21.80;12.88;;;;;;;17.32;100.00;98022.63;5051777;28;20024;-58
2022/06/05 03:42:00;;;;;;;19.00;12.00;;;;;;;17.21;100.00;98025.16;5049675;28;20039;-57
2022/06/05 03:44:26;;;;;;;21.73;12.30;;;;;;;17.26;100.00;98023.03;5050941;28;20470;-56
2022/06/05 03:46:52;;;;;;;20.23;12.13;;;;;;;17.28;100.00;98031.72;5047268;28;20044;-58
2022/06/05 03:49:18;;;;;;;18.88;12.30;;;;;;;17.34;100.00;98021.56;5049696;28;20066;-58
2022/06/05 03:51:45;;;;;;;19.70;12.30;;;;;;;17.32;100.00;98015.56;5048725;28;20067;-56
2022/06/05 03:54:10;;;;;;;20.83;12.30;;;;;;;17.40;100.00;98020.31;5050946;28;20103;-56
2022/06/05 03:56:36;;;;;;;20.08;12.18;;;;;;;17.49;100.00;98024.94;5048648;28;20720;-56
2022/06/05 03:59:01;;;;;;;20.85;11.75;;;;;;;17.68;100.00;98026.31;5049836;28;20555;-57
2022/06/05 04:01:27;;;;;;;17.23;11.10;;;;;;;18.18;100.00;98021.06;5048560;28;20094;-57
2022/06/05 04:03:53;;;;;;;18.23;11.38;;;;;;;18.25;100.00;98027.59;5051601;28;20119;-58
2022/06/05 04:06:23;;;;;;;18.70;11.00;;;;;;;18.00;100.00;98028.53;5049691;28;20075;-57
2022/06/05 04:08:48;;;;;;;17.50;10.63;;;;;;;18.32;100.00;98020.94;5049382;28;20462;-58
2022/06/05 04:11:18;;;;;;;19.13;10.95;;;;;;;19.00;100.00;98018.63;5046452;28;20037;-58
2022/06/05 04:13:43;;;;;;;15.38;9.02;;;;;;;19.81;100.00;98004.50;5048781;28;20312;-59
2022/06/05 04:16:14;;;;;;;16.17;9.40;;;;;;;20.05;100.00;98006.13;5051288;28;20060;-59
2022/06/05 04:18:40;;;;;;;19.77;10.48;;;;;;;19.82;100.00;98006.16;5051190;28;20546;-57
2022/06/05 04:21:10;;;;;;;15.07;9.63;;;;;;;19.88;100.00;98004.00;5047467;28;20036;-59
2022/06/05 04:23:36;;;;;;;16.20;9.85;;;;;;;20.70;100.00;97985.06;5046337;28;20024;-57
2022/06/05 04:26:05;;;;;;;15.48;9.35;;;;;;;20.41;100.00;97990.91;5049305;28;20040;-57
2022/06/05 04:28:30;;;;;;;21.17;10.25;;;;;;;19.99;100.00;97986.28;5049582;28;20055;-58
2022/06/05 04:30:56;;;;;;;17.90;10.10;;;;;;;20.08;100.00;97978.59;5046980;28;20657;-57
2022/06/05 04:33:21;;;;;;;17.45;9.88;;;;;;;19.90;100.00;97980.88;5049868;28;20287;-58
2022/06/05 04:35:47;;;;;;;17.70;10.55;;;;;;;19.90;100.00;97984.38;5049769;28;20045;-57
2022/06/05 04:38:12;;;;;;;15.90;9.80;;;;;;;19.77;100.00;97995.06;5048808;28;20599;-57
2022/06/05 04:40:37;;;;;;;16.20;9.93;;;;;;;19.70;100.00;97991.19;5047600;28;20025;-58
2022/06/05 04:43:03;;;;;;;18.00;10.38;;;;;;;19.81;100.00;97987.75;5047834;28;20029;-58
2022/06/05 04:45:28;;;;;;;17.95;10.07;;;;;;;20.03;100.00;97981.56;5048776;28;20037;-57
2022/06/05 04:47:53;;;;;;;19.65;10.27;;;;;;;19.41;100.00;97988.22;5049912;28;20021;-57
2022/06/05 04:50:19;;;;;;;14.68;9.35;;;;;;;19.61;100.00;97986.63;5048139;28;20100;-57
2022/06/05 04:52:44;;;;;;;16.30;9.95;;;;;;;19.34;100.00;97994.94;5051476;28;20032;-56
2022/06/05 04:55:10;;;;;;;16.67;10.43;;;;;;;20.13;100.00;97995.78;5048401;28;20063;-56
2022/06/05 04:57:36;;;;;;;18.92;9.43;;;;;;;20.97;100.00;97982.75;5050590;28;20029;-56
2022/06/05 05:00:04;;;;;;;20.00;10.13;;;;;;;21.69;100.00;97978.41;5048469;28;20501;-55
2022/06/05 05:02:30;;;;;;;15.43;8.95;;;;;;;22.46;100.00;97970.78;5049841;28;20086;-56
2022/06/05 05:04:56;;;;;;;15.93;8.95;;;;;;;23.14;100.00;97976.13;5049201;28;20024;-56
2022/06/05 05:07:22;;;;;;;13.60;8.10;;;;;;;25.15;100.00;97969.09;5048076;28;20128;-57
2022/06/05 05:09:47;;;;;;;16.02;8.30;;;;;;;24.33;100.00;97960.34;5047853;28;20027;-56
2022/06/05 05:12:13;;;;;;;12.63;8.07;;;;;;;24.78;100.00;97961.31;5048153;28;20120;-56
2022/06/05 05:14:39;;;;;;;12.63;7.95;;;;;;;27.27;100.00;97958.41;5047488;28;20040;-57
2022/06/05 05:17:05;;;;;;;12.25;7.50;;;;;;;26.04;100.00;97937.69;5049678;28;20052;-57
2022/06/05 05:19:30;;;;;;;12.40;7.07;;;;;;;26.51;100.00;97906.88;5049243;28;20037;-57
2022/06/05 05:21:55;;;;;;;10.40;7.03;;;;;;;26.19;100.00;97905.00;5048171;28;20090;-56
2022/06/05 05:24:21;;;;;;;11.05;7.30;;;;;;;26.01;100.00;97894.44;5051166;28;20037;-57
2022/06/05 05:26:46;;;;;;;10.43;7.07;;;;;;;25.86;100.00;97879.03;5049298;28;20437;-56
2022/06/05 05:29:12;;;;;;;13.52;7.63;;;;;;;25.11;100.00;97873.50;5047849;28;20727;-57
2022/06/05 05:31:40;;;;;;;12.55;7.25;;;;;;;26.21;100.00;97886.94;5048519;28;20060;-59
2022/06/05 05:34:07;;;;;;;12.32;7.30;;;;;;;25.16;100.00;97887.19;5050225;28;20718;-58
2022/06/05 05:36:33;;;;;;;12.63;7.15;;;;;;;27.57;98.25;97897.03;5051993;28;20048;-57
2022/06/05 05:44:27;;;;;;;10.88;7.13;;;;;;;28.06;85.42;97880.75;5053065;28;20059;-56
2022/06/05 05:46:54;;;;;;;10.38;6.88;;;;;;;26.95;90.08;97866.41;5051201;28;20073;-58
2022/06/05 05:49:19;;;;;;;10.23;6.57;;;;;;;27.36;87.53;97869.00;5052242;28;20036;-56
2022/06/05 05:51:44;;;;;;;16.98;7.15;;;;;;;26.93;89.53;97863.09;5049732;28;20033;-56
2022/06/05 05:54:11;;;;;;;11.65;7.85;;;;;;;24.86;100.00;97859.16;5052196;28;20956;-57
2022/06/05 05:56:36;;;;;;;10.07;6.68;;;;;;;28.19;82.04;97854.19;5051579;28;20497;-58
2022/06/05 05:59:02;;;;;;;10.48;6.65;;;;;;;29.11;72.79;97865.81;5052121;28;20025;-58
2022/06/05 06:01:27;;;;;;;10.45;6.60;;;;;;;27.83;80.99;97870.81;5049223;28;20037;-58
2022/06/05 06:03:53;;;;;;;9.70;6.35;;;;;;;29.44;71.29;97870.84;5052553;28;20082;-57
2022/06/05 06:06:24;;;;;;;11.40;6.85;;;;;;;30.04;64.66;97885.88;5049915;28;20090;-57
2022/06/05 06:08:50;;;;;;;8.43;6.20;;;;;;;30.81;63.42;97897.81;5050169;28;20025;-57
2022/06/05 06:11:16;;;;;;;9.15;6.68;;;;;;;28.80;66.42;97899.00;5052375;28;20029;-57
2022/06/05 06:13:41;;;;;;;10.95;6.22;;;;;;;31.20;59.02;97884.88;5049016;28;20501;-57
2022/06/05 06:16:07;;;;;;;7.85;5.57;;;;;;;29.42;65.91;97876.41;5051543;28;20047;-56
2022/06/05 06:18:32;;;;;;;9.55;6.65;;;;;;;28.25;71.35;97880.31;5051268;28;20634;-57
2022/06/05 06:20:58;;;;;;;8.82;6.18;;;;;;;29.00;68.06;97886.75;5051439;28;20098;-57
2022/06/05 06:23:23;;;;;;;9.77;5.85;;;;;;;29.47;69.78;97895.50;5052582;28;20317;-58
2022/06/05 06:25:49;;;;;;;8.63;5.80;;;;;;;30.10;65.06;97885.09;5052254;28;20064;-57
2022/06/05 06:28:14;;;;;;;8.73;6.18;;;;;;;29.77;67.86;97890.94;5051508;28;20025;-57
2022/06/05 06:30:40;;;;;;;9.23;5.30;;;;;;;31.83;58.54;97890.19;5049985;28;20636;-57
2022/06/05 06:33:06;;;;;;;6.75;4.85;;;;;;;33.23;54.07;97896.66;5050433;28;20028;-57
2022/06/05 06:35:34;;;;;;;6.60;5.07;;;;;;;33.31;52.19;97894.75;5052346;28;20036;-57
2022/06/05 06:38:00;;;;;;;7.78;5.05;;;;;;;31.36;52.97;97899.88;5049073;28;20344;-57
2022/06/05 06:40:26;;;;;;;7.40;5.25;;;;;;;30.25;65.48;97903.06;5050690;28;20035;-58
2022/06/05 06:42:54;;;;;;;8.18;5.22;;;;;;;33.04;51.40;97889.34;5051063;28;20044;-57
2022/06/05 06:45:19;;;;;;;10.68;5.40;;;;;;;32.72;51.33;97877.53;5050214;28;20020;-58
2022/06/05 06:47:45;;;;;;;7.78;5.05;;;;;;;31.93;53.10;97879.00;5052495;28;20029;-57
2022/06/05 06:50:10;;;;;;;7.72;4.90;;;;;;;32.00;55.65;97872.63;5049815;28;20572;-57
2022/06/05 06:52:37;;;;;;;8.32;5.70;;;;;;;30.30;55.56;97884.50;5050996;28;20024;-59
2022/06/05 06:55:04;;;;;;;10.07;5.68;;;;;;;31.37;53.31;97885.38;5051204;28;20051;-57
2022/06/05 06:57:29;;;;;;;7.28;5.38;;;;;;;32.54;50.49;97886.22;5048614;28;20059;-59
2022/06/05 06:59:56;;;;;;;10.93;6.20;;;;;;;31.16;53.49;97897.91;5049689;28;20029;-57
2022/06/05 07:02:21;;;;;;;7.78;5.80;;;;;;;30.22;59.98;97903.44;5049184;28;20037;-57
2022/06/05 07:04:46;;;;;;;7.82;5.40;;;;;;;30.68;56.39;97903.94;5048969;28;20028;-60
2022/06/05 07:07:12;;;;;;;8.63;5.68;;;;;;;28.94;63.35;97895.50;5048512;28;20143;-58
2022/06/05 07:09:37;;;;;;;8.70;6.18;;;;;;;29.66;62.10;97886.00;5050451;28;20025;-58
2022/06/05 07:12:03;;;;;;;8.77;5.90;;;;;;;30.93;56.39;97890.06;5050181;28;20036;-59
2022/06/05 07:14:29;;;;;;;10.60;6.03;;;;;;;30.03;59.06;97889.56;5050548;28;20043;-59
2022/06/05 07:16:55;;;;;;;10.95;5.63;;;;;;;28.95;67.67;97881.09;5052310;28;20478;-57
2022/06/05 07:19:21;;;;;;;8.38;6.25;;;;;;;27.80;74.40;97879.19;5049275;28;20101;-57
2022/06/05 07:21:47;;;;;;;13.50;6.80;;;;;;;28.25;71.86;97872.25;5048487;28;20040;-57
2022/06/05 07:24:12;;;;;;;11.75;6.47;;;;;;;27.60;73.26;97869.91;5051123;28;20260;-57
2022/06/05 07:26:38;;;;;;;8.73;6.50;;;;;;;28.41;69.29;97873.13;5049393;28;20280;-59
2022/06/05 07:29:04;;;;;;;9.13;6.30;;;;;;;29.55;65.55;97876.56;5050369;28;20144;-58
2022/06/05 07:31:31;;;;;;;8.90;6.47;;;;;;;28.91;66.80;97885.16;5049174;28;20073;-56
2022/06/05 07:33:58;;;;;;;11.50;6.30;;;;;;;28.02;77.51;97890.16;5051688;28;20527;-57
2022/06/05 07:36:26;;;;;;;9.25;6.05;;;;;;;28.46;75.03;97889.53;5049219;28;20102;-57
2022/06/05 07:38:53;;;;;;;10.25;7.00;;;;;;;27.01;85.25;97907.72;5048953;28;20016;-58
2022/06/05 07:41:31;;;;;;;10.05;6.70;;;;;;;26.29;91.31;97919.88;5047886;28;20040;-58
2022/06/05 07:43:57;;;;;;;11.75;6.60;;;;;;;27.55;80.01;97928.53;5050367;28;20047;-60
2022/06/05 07:46:23;;;;;;;12.05;7.65;;;;;;;25.54;98.96;97941.97;5049126;28;20147;-58
2022/06/05 07:48:48;;;;;;;12.02;7.30;;;;;;;25.34;100.00;97952.06;5049179;28;20058;-57
2022/06/05 07:54:30;;;;;;;13.00;7.45;;;;;;;26.06;100.00;97964.28;5050729;28;20442;-57
2022/06/05 07:57:08;;;;;;;14.55;7.40;;;;;;;26.00;99.23;97978.28;5049922;28;20480;-57
2022/06/05 07:59:40;;;;;;;13.35;7.45;;;;;;;25.33;100.00;97998.44;5048646;28;20379;-59
2022/06/05 08:02:11;;;;;;;11.82;7.13;;;;;;;25.62;100.00;98001.78;5047746;28;20047;-59
2022/06/05 08:04:38;;;;;;;12.50;7.18;;;;;;;25.23;100.00;98013.69;5050790;28;20032;-57
2022/06/05 08:07:05;;;;;;;11.10;7.10;;;;;;;25.51;100.00;98042.94;5052761;28;20036;-58
2022/06/05 08:09:32;;;;;;;13.32;7.68;;;;;;;25.14;100.00;98054.66;5049256;28;20056;-58
2022/06/05 08:11:58;;;;;;;11.68;7.30;;;;;;;25.85;100.00;98061.69;5045080;28;20037;-59
2022/06/05 08:14:23;;;;;;;12.20;7.50;;;;;;;25.57;100.00;98069.03;5050965;28;20035;-59
2022/06/05 08:16:49;;;;;;;16.52;7.30;;;;;;;25.34;100.00;98064.19;5048728;28;20686;-59
2022/06/05 08:19:20;;;;;;;13.50;7.38;;;;;;;26.14;100.00;98065.88;5048854;28;20034;-57
2022/06/05 08:21:47;;;;;;;13.38;7.80;;;;;;;25.36;100.00;98088.91;5048324;28;20116;-59
2022/06/05 08:24:13;;;;;;;14.27;7.93;;;;;;;25.26;100.00;98092.66;5048810;28;20029;-58
2022/06/05 08:26:38;;;;;;;13.35;7.80;;;;;;;24.96;100.00;98089.34;5048792;28;20836;-58
2022/06/05 08:29:04;;;;;;;14.07;7.95;;;;;;;24.22;100.00;98099.16;5045235;28;20144;-58
2022/06/05 08:31:31;;;;;;;15.98;8.15;;;;;;;24.31;100.00;98090.25;5042690;28;20048;-61
2022/06/05 08:33:57;;;;;;;16.58;8.27;;;;;;;24.29;100.00;98084.25;5044206;28;20027;-63
2022/06/05 08:36:23;;;;;;;16.05;8.50;;;;;;;23.90;100.00;98079.09;5047195;28;20580;-62
2022/06/05 08:41:39;;;;;;;15.82;8.18;;;;;;;24.11;100.00;98078.03;5045707;28;20538;-63
2022/06/05 08:44:23;;;;;;;16.48;8.30;;;;;;;24.27;100.00;98072.91;5045777;28;20024;-60
2022/06/05 08:47:27;;;;;;;15.32;8.10;;;;;;;24.12;100.00;98077.03;5045018;28;20066;-55
2022/06/05 08:49:53;;;;;;;19.55;9.13;;;;;;;23.47;100.00;98069.75;5004649;28;20474;-61
2022/06/05 08:52:27;;;;;;;16.05;8.25;;;;;;;23.47;100.00;98067.09;5004030;28;20044;-62
2022/06/05 08:54:55;;;;;;;15.25;8.70;;;;;;;23.86;100.00;98064.38;5028109;28;20557;-60
2022/06/05 08:57:27;;;;;;;14.27;7.85;;;;;;;23.62;100.00;98065.66;5045325;28;20580;-60
2022/06/05 09:00:20;;;;;;;15.65;7.90;;;;;;;23.17;100.00;98060.97;5044000;28;20025;-62
2022/06/05 09:02:54;;;;;;;13.20;7.10;;;;;;;24.00;100.00;98045.22;5043179;28;20044;-60
2022/06/05 09:05:28;;;;;;;16.00;7.53;;;;;;;23.67;100.00;98026.16;5047026;28;20032;-59
2022/06/05 09:08:01;;;;;;;13.70;7.32;;;;;;;23.20;100.00;98015.47;5045884;28;20871;-58
2022/06/05 09:10:35;;;;;;;14.68;7.97;;;;;;;23.57;100.00;97988.06;5048412;28;20048;-58
2022/06/05 09:13:10;;;;;;;18.60;8.73;;;;;;;23.23;100.00;97961.97;5050239;28;20033;-60
2022/06/05 09:15:58;;;;;;;16.60;8.07;;;;;;;22.73;100.00;97940.88;5052412;28;20047;-58
2022/06/05 09:18:29;;;;;;;20.20;8.70;;;;;;;22.73;100.00;97898.31;5050969;28;20817;-59
2022/06/05 09:20:59;;;;;;;16.75;8.68;;;;;;;22.57;100.00;97887.44;5047447;28;20786;-59
2022/06/05 09:23:40;;;;;;;14.98;8.10;;;;;;;22.64;100.00;97877.91;5048879;28;20020;-60
2022/06/05 09:26:16;;;;;;;20.40;9.10;;;;;;;22.19;100.00;97867.84;5051987;28;20044;-60
2022/06/05 09:28:56;;;;;;;21.23;9.18;;;;;;;22.26;100.00;97843.25;5049101;28;20033;-63
2022/06/05 09:31:30;;;;;;;18.40;8.90;;;;;;;22.03;100.00;97837.34;5050801;28;20091;-58
2022/06/05 09:33:59;;;;;;;20.05;9.00;;;;;;;22.28;100.00;97833.34;5049264;28;20029;-60
2022/06/05 09:36:27;;;;;;;20.90;9.65;;;;;;;21.67;100.00;97837.03;5047965;28;20041;-60
2022/06/05 09:39:14;;;;;;;16.25;8.48;;;;;;;22.22;100.00;97862.22;5049940;28;20028;-61
2022/06/05 09:42:00;;;;;;;20.55;9.95;;;;;;;21.73;100.00;97926.75;5049458;28;20048;-61
2022/06/05 09:44:59;;;;;;;25.95;10.57;;;;;;;21.75;100.00;97903.56;5049318;28;20409;-59
2022/06/05 09:47:36;;;;;;;20.95;11.00;;;;;;;21.44;100.00;97893.94;5047620;28;20037;-58
2022/06/05 09:50:22;;;;;;;35.92;11.98;;;;;;;20.90;100.00;97864.94;5049353;28;20035;-59
2022/06/05 09:52:49;;;;;;;23.40;11.45;;;;;;;20.94;100.00;97871.66;5048995;28;20177;-58
2022/06/05 09:55:35;;;;;;;23.00;10.35;;;;;;;21.47;100.00;97878.63;5047867;28;20437;-59
2022/06/05 09:58:32;;;;;;;24.30;11.02;;;;;;;21.67;100.00;97879.50;5050184;28;20484;-60
2022/06/05 10:00:59;;;;;;;24.33;11.52;;;;;;;21.18;100.00;97905.81;5045596;28;20183;-59
2022/06/05 10:03:29;;;;;;;23.88;12.10;;;;;;;21.02;100.00;97923.19;5048063;28;20083;-60
2022/06/05 10:06:21;;;;;;;27.38;12.88;;;;;;;21.97;100.00;97917.56;5047902;28;20048;-59
2022/06/05 10:09:04;;;;;;;;;;;;;;;21.81;100.00;97938.50;5049452;28;20221;-58
2022/06/05 10:11:57;;;;;;;21.25;13.27;;;;;;;21.83;100.00;97936.53;5047957;28;19920;-57
2022/06/05 10:15:00;;;;;;;22.75;11.75;;;;;;;21.48;100.00;97932.50;5048033;28;20035;-56
2022/06/05 10:17:45;;;;;;;28.35;11.63;;;;;;;21.86;100.00;97925.66;5049220;28;20041;-60
2022/06/05 10:20:13;;;;;;;20.55;11.15;;;;;;;22.27;100.00;97923.81;5047293;28;20161;-59
2022/06/05 10:23:28;;;;;;;18.27;10.75;;;;;;;22.40;100.00;97935.00;5048796;28;20191;-57
2022/06/05 10:26:31;;;;;;;17.40;10.68;;;;;;;22.12;100.00;97931.31;5035834;28;20549;-57
2022/06/05 10:29:18;;;;;;;20.50;10.00;;;;;;;22.93;100.00;97922.22;5048138;28;20029;-58
2022/06/05 10:32:01;;;;;;;17.85;10.05;;;;;;;22.55;100.00;97939.88;5048094;28;20044;-57
2022/06/05 10:34:40;;;;;;;19.83;10.18;;;;;;;22.86;100.00;97940.56;5048120;28;20048;-56
2022/06/05 10:37:21;;;;;;;16.05;9.80;;;;;;;22.53;100.00;97940.03;5055866;28;20203;-58
2022/06/05 10:39:46;;;;;;;23.58;10.40;;;;;;;22.20;100.00;97935.91;5046668;28;20025;-56
2022/06/05 10:42:36;;;;;;;22.60;10.33;;;;;;;22.07;100.00;97942.31;5047948;28;20066;-58
2022/06/05 10:45:04;;;;;;;23.83;11.65;;;;;;;21.90;100.00;97943.81;5045265;28;20250;-56
2022/06/05 10:47:59;;;;;;;23.00;10.45;;;;;;;21.94;100.00;97933.78;5047780;28;20040;-58
2022/06/05 10:50:30;;;;;;;21.27;11.07;;;;;;;21.87;100.00;97927.31;5047017;28;20087;-61
2022/06/05 10:53:18;;;;;;;18.25;10.68;;;;;;;22.02;100.00;97911.84;5047838;28;20048;-59
2022/06/05 10:56:01;;;;;;;21.80;11.45;;;;;;;22.07;100.00;97888.38;5049615;28;20166;-58
2022/06/05 10:59:02;;;;;;;21.30;10.65;;;;;;;22.00;100.00;97896.06;5047462;28;20056;-56
2022/06/05 11:01:41;;;;;;;23.10;11.40;;;;;;;22.23;100.00;97887.84;5046785;28;20116;-56
2022/06/05 11:04:21;;;;;;;17.50;10.75;;;;;;;22.22;100.00;97889.66;5046856;28;20039;-58
2022/06/05 11:06:53;;;;;;;22.77;12.07;;;;;;;22.05;100.00;97872.56;5046772;28;20559;-55
2022/06/05 11:09:48;;;;;;;20.70;11.25;;;;;;;22.14;100.00;97839.88;5046840;28;20112;-58
2022/06/05 11:15:27;;;;;;;35.42;14.40;;;;;;;21.61;100.00;97789.81;5044739;28;20071;-58
2022/06/05 11:18:17;;;;;;;27.95;14.30;;;;;;;21.38;100.00;97800.63;5045983;28;20067;-58
2022/06/05 11:20:52;;;;;;;24.10;14.43;;;;;;;21.69;100.00;97823.63;5046101;28;20086;-58
2022/06/05 11:23:22;;;;;;;27.38;13.68;;;;;;;21.68;100.00;97849.31;5047764;28;20035;-58
2022/06/05 11:26:00;;;;;;;25.67;13.90;;;;;;;21.94;100.00;97841.66;5047764;28;20125;-58
2022/06/05 11:28:43;;;;;;;24.52;13.63;;;;;;;22.21;100.00;97831.34;5046857;28;20025;-57
2022/06/05 11:31:13;;;;;;;17.38;11.07;;;;;;;22.60;100.00;97796.78;5051248;28;20079;-56
2022/06/05 11:33:55;;;;;;;18.17;11.27;;;;;;;22.57;100.00;97797.06;5047542;28;20064;-57
2022/06/05 11:36:28;;;;;;;19.73;10.77;;;;;;;23.36;100.00;97782.50;5047047;28;20041;-59
2022/06/05 11:39:18;;;;;;;22.02;10.25;;;;;;;24.27;100.00;97768.25;5047072;28;20027;-59
2022/06/05 11:42:03;;;;;;;16.58;9.75;;;;;;;24.66;100.00;97750.03;5044778;28;20049;-58
2022/06/05 11:44:37;;;;;;;17.60;8.98;;;;;;;25.04;100.00;97739.88;5046409;28;20573;-58
2022/06/05 11:47:06;;;;;;;17.88;8.98;;;;;;;25.91;100.00;97743.06;5047008;28;20696;-58
2022/06/05 11:49:44;;;;;;;14.70;8.20;;;;;;;26.33;100.00;97742.09;5047096;28;20123;-57
2022/06/05 11:52:28;;;;;;;17.75;9.13;;;;;;;26.30;100.00;97739.78;5053674;28;20068;-57
2022/06/05 11:54:58;;;;;;;15.68;8.60;;;;;;;25.85;100.00;97738.41;5048932;28;20044;-57